메인 페이지
METAR-TAF:

METAR-TAF

공항 :

릴롱궤, 말라위

위도: 13-47S, 경도: 033-46E, 고도: 1229m

현재 날씨관측

예보는 38분 전, 14:00시(UTC)에 발표되었습니다.
동남동10kt, 순간 최대 풍속 20kt
온도 28°C
습도 32%
기압 1018 hPa
시정 10km 이상
고도 3500ft 상공 구름 많음

METAR: FWKI 221400Z 12010G20KT 9999 BKN035 28/10 Q1018 NOSIG

시각: 16:38 (14:38 UTC)

예보

예보는 3 시간 53분 전, 10:45시(UTC)에 발표되었습니다.
예보 대상 시간: 22일 12시부터 23일 18시까지 (UTC)
12kt
시정 10km 이상
고도 3000ft 상공 구름 많음
일시적
22일 12시부터 22일 15시까지 (UTC)
15kt
시정 10km 이상
고도 3000ft 상공 구름 조금, 적란운.
고도 7000ft 상공 구름 많음
약한소나기
전환 중
22일 15시부터 22일 17시까지 (UTC)
10kt
시정 10km 이상
고도 3200ft 상공 구름 조금, 적란운.
고도 8000ft 상공 구름 보통

TAF: FWKI 221045Z 2212/2318 09012KT 9999 BKN030 TEMPO 2212/2215 09015KT 9999 -SHRA FEW030CB BKN070 BECMG 2215/2217 08010KT 9999 FEW032CB SCT080

4,000개 이상의 공항 관측 자료 및 예보 (METAR 및 TAF 보고).

지도상에서 검색 가능한 기상관측소가 노란 점과 빨간 점으로 표시되어 있습니다.

기상관측소 명을 보려면 표시 위로 마우스를 이동하세요.

날씨 관측과 예보를 보려면 클릭하세요.

지도 변경 : 확대하려면 엑스 표시가 있는 녹색 버튼, 축소하려면 빼기 표시가 있는 녹색 버튼, 다음 페이지의 지도를 보려면 녹색 화살표를 클릭하세요.


METAR-TAF: